Time;durP1;ratioP1;P1;durP2;ratioP2;P2;SDS_P1;SDS_P2;PMS_P1;PMS_P2;Temp;Humidity;BMP_temperature;BMP_pressure;BME280_temperature;BME280_humidity;BME280_pressure;Samples;Min_cycle;Max_cycle;Signal;HPM_P1;HPM_P2
2022/05/05 00:01:34;;;;;;;14.80;9.45;;;;;;;10.68;64.59;101893.28;6158281;23;20026;-84
2022/05/05 00:03:59;;;;;;;14.98;9.18;;;;;;;10.69;64.73;101901.16;6157682;23;20016;-84
2022/05/05 00:06:26;;;;;;;14.20;9.70;;;;;;;10.64;64.79;101903.25;6129489;23;20417;-84
2022/05/05 00:08:51;;;;;;;13.00;9.05;;;;;;;10.59;64.57;101901.78;6156603;23;20020;-84
2022/05/05 00:16:47;;;;;;;18.90;9.93;;;;;;;10.52;65.18;101909.25;6168484;23;20016;-84
2022/05/05 00:19:13;;;;;;;11.35;8.88;;;;;;;10.44;65.62;101907.06;6170314;23;20012;-84
2022/05/05 00:21:38;;;;;;;13.48;9.50;;;;;;;10.40;65.83;101904.69;6159669;23;20005;-84
2022/05/05 00:24:07;;;;;;;18.73;9.88;;;;;;;10.35;65.89;101910.25;6157537;23;20029;-84
2022/05/05 00:26:33;;;;;;;14.68;9.25;;;;;;;10.32;66.38;101910.44;6158358;23;20316;-84
2022/05/05 00:28:58;;;;;;;14.98;8.93;;;;;;;10.30;66.16;101904.34;6158192;23;20013;-84
2022/05/05 00:31:24;;;;;;;13.57;9.68;;;;;;;10.26;66.03;101900.13;6157165;23;20032;-84
2022/05/05 00:33:49;;;;;;;15.48;10.48;;;;;;;10.22;66.72;101904.78;6157607;23;20005;-84
2022/05/05 00:36:14;;;;;;;13.00;9.98;;;;;;;10.21;66.77;101904.84;6157349;23;20002;-84
2022/05/05 00:38:40;;;;;;;16.65;9.73;;;;;;;10.16;66.85;101903.34;6157913;23;20009;-84
2022/05/05 00:41:05;;;;;;;14.48;10.07;;;;;;;10.14;67.32;101899.94;6157289;23;20002;-84
2022/05/05 00:43:33;;;;;;;12.88;9.73;;;;;;;10.16;67.06;101898.03;6157329;23;20079;-84
2022/05/05 00:45:58;;;;;;;15.50;10.32;;;;;;;10.15;66.59;101901.63;6156690;23;20092;-84
2022/05/05 00:48:28;;;;;;;15.25;10.35;;;;;;;10.15;67.10;101901.63;6156493;23;20006;-84
2022/05/05 00:50:56;;;;;;;15.85;10.13;;;;;;;10.10;67.28;101895.72;6130947;23;20027;-84
2022/05/05 00:53:22;;;;;;;12.53;9.43;;;;;;;10.06;67.32;101891.53;6157415;23;20040;-84
2022/05/05 00:55:51;;;;;;;15.48;9.52;;;;;;;10.07;67.49;101898.53;6157890;23;20323;-84
2022/05/05 00:58:17;;;;;;;12.98;10.45;;;;;;;10.06;67.34;101899.50;6157121;23;20041;-84
2022/05/05 01:00:43;;;;;;;16.42;10.20;;;;;;;10.06;67.44;101895.97;6157671;23;20017;-84
2022/05/05 01:03:09;;;;;;;14.38;9.40;;;;;;;10.05;67.52;101891.63;6157091;23;20005;-84
2022/05/05 01:05:37;;;;;;;15.57;9.95;;;;;;;10.00;67.93;101900.69;6130510;23;20024;-84
2022/05/05 01:08:04;;;;;;;14.35;9.43;;;;;;;10.01;67.77;101898.91;6130435;23;20320;-84
2022/05/05 01:10:29;;;;;;;15.77;9.95;;;;;;;10.00;66.83;101897.19;6155980;23;20154;-84
2022/05/05 01:12:55;;;;;;;13.48;9.68;;;;;;;10.00;67.29;101903.34;6156898;23;20002;-84
2022/05/05 01:15:21;;;;;;;13.38;10.15;;;;;;;9.97;68.41;101894.72;6156517;23;20009;-84
2022/05/05 01:17:47;;;;;;;14.10;9.52;;;;;;;10.02;68.25;101899.75;6131084;23;20009;-84
2022/05/05 01:20:22;;;;;;;15.38;9.80;;;;;;;10.05;67.56;101891.63;6130633;23;20001;-84
2022/05/05 01:22:47;;;;;;;12.75;9.57;;;;;;;10.05;68.56;101895.13;6132319;23;20439;-84
2022/05/05 01:28:13;;;;;;;15.10;10.00;;;;;;;10.03;68.32;101897.03;6158036;23;20347;-85
2022/05/05 01:30:40;;;;;;;15.75;10.07;;;;;;;9.99;67.89;101892.81;6131825;23;20009;-84
2022/05/05 01:33:14;;;;;;;15.88;10.38;;;;;;;10.00;68.99;101891.88;6132338;23;20012;-84
2022/05/05 01:35:43;;;;;;;14.63;9.55;;;;;;;9.98;69.21;101891.97;6158926;23;20024;-84
2022/05/05 01:38:09;;;;;;;;;;;;;;;10.10;66.05;101892.22;6158531;23;20438;-84
2022/05/05 01:40:36;;;;;;;15.02;10.23;;;;;;;10.00;68.71;101887.44;6158606;23;19920;-84
2022/05/05 01:43:03;;;;;;;15.90;10.55;;;;;;;9.98;69.03;101889.31;6159811;23;20005;-84
2022/05/05 01:45:30;;;;;;;13.75;10.10;;;;;;;9.99;68.55;101885.72;6160331;23;20005;-84
2022/05/05 01:47:55;;;;;;;19.63;10.20;;;;;;;10.05;68.51;101894.28;6133193;23;20013;-84
2022/05/05 01:50:20;;;;;;;13.27;10.33;;;;;;;10.02;69.06;101892.66;6158365;23;20005;-84
2022/05/05 01:52:47;;;;;;;15.45;10.13;;;;;;;10.03;69.32;101898.84;6158194;23;20245;-84
2022/05/05 01:55:12;;;;;;;15.10;9.93;;;;;;;9.97;69.61;101895.56;6133346;23;20009;-84
2022/05/05 01:57:38;;;;;;;15.05;10.63;;;;;;;9.98;69.56;101899.94;6160266;23;20058;-84
2022/05/05 02:00:04;;;;;;;15.70;10.23;;;;;;;10.02;69.27;101894.47;6160714;23;20004;-84
2022/05/05 02:02:29;;;;;;;17.15;10.73;;;;;;;10.02;69.04;101899.75;6165187;23;20033;-84
2022/05/05 02:04:55;;;;;;;13.77;10.05;;;;;;;10.02;68.65;101897.97;6162759;23;20006;-84
2022/05/05 02:07:20;;;;;;;14.30;9.90;;;;;;;10.00;68.64;101890.09;6161429;23;20017;-84
2022/05/05 02:09:45;;;;;;;14.60;10.65;;;;;;;10.02;68.21;101903.25;6160975;23;20335;-84
2022/05/05 02:12:10;;;;;;;21.48;11.45;;;;;;;10.02;69.21;101908.56;6161914;23;20005;-84
2022/05/05 02:14:36;;;;;;;18.42;10.23;;;;;;;10.03;69.48;101901.50;6161473;23;20077;-84
2022/05/05 02:17:01;;;;;;;17.80;11.23;;;;;;;10.03;69.64;101912.09;6137282;23;20335;-84
2022/05/05 02:19:26;;;;;;;14.13;10.48;;;;;;;10.04;69.95;101911.16;6162623;23;20009;-83
2022/05/05 02:21:52;;;;;;;14.18;9.90;;;;;;;10.02;69.61;101903.25;6135320;23;20338;-84
2022/05/05 02:24:17;;;;;;;15.98;10.77;;;;;;;10.04;69.10;101912.00;6160912;23;20060;-84
2022/05/05 02:26:42;;;;;;;16.75;10.85;;;;;;;10.06;69.32;101898.63;6160971;23;20002;-84
2022/05/05 02:29:08;;;;;;;18.20;11.20;;;;;;;10.06;68.25;101909.25;6161541;23;20033;-84
2022/05/05 02:31:33;;;;;;;19.30;10.95;;;;;;;10.07;69.08;101903.00;6162449;23;20312;-84
2022/05/05 02:33:59;;;;;;;18.10;11.18;;;;;;;10.08;69.23;101910.88;6164007;23;20057;-84
2022/05/05 02:39:08;;;;;;;17.10;11.85;;;;;;;10.07;69.61;101906.50;6163554;23;20517;-84
2022/05/05 02:41:33;;;;;;;14.70;11.48;;;;;;;10.09;69.83;101901.13;6163868;23;20005;-84
2022/05/05 02:43:59;;;;;;;17.13;11.13;;;;;;;10.09;69.84;101909.97;6172994;23;19985;-84
2022/05/05 02:46:24;;;;;;;16.63;11.00;;;;;;;10.08;70.02;101902.06;6182376;23;20001;-84
2022/05/05 02:48:49;;;;;;;17.13;10.73;;;;;;;10.08;70.26;101902.94;6184618;23;19990;-85
2022/05/05 02:51:14;;;;;;;16.23;10.90;;;;;;;10.10;69.82;101910.81;6183842;23;20012;-84
2022/05/05 02:56:24;;;;;;;14.70;11.02;;;;;;;10.12;69.68;101901.78;6169773;23;20077;-83
2022/05/05 02:58:49;;;;;;;17.13;11.10;;;;;;;10.14;69.65;101899.94;6163888;23;20005;-83
2022/05/05 03:01:14;;;;;;;16.42;11.50;;;;;;;10.12;70.30;101907.09;6162931;23;20299;-83
2022/05/05 03:03:40;;;;;;;16.52;11.38;;;;;;;10.09;70.20;101899.34;6162458;23;20032;-83
2022/05/05 03:06:05;;;;;;;17.67;11.40;;;;;;;10.09;69.85;101898.47;6161414;23;20362;-83
2022/05/05 03:08:30;;;;;;;16.25;11.70;;;;;;;10.08;69.92;101902.94;6161894;23;20013;-83
2022/05/05 03:10:56;;;;;;;16.98;11.00;;;;;;;10.09;69.79;101901.13;6135241;23;20005;-84
2022/05/05 03:13:21;;;;;;;20.00;11.55;;;;;;;10.08;70.03;101900.28;6165316;23;20018;-84
2022/05/05 03:15:46;;;;;;;17.93;11.43;;;;;;;10.11;69.60;101899.25;6167501;23;20009;-83
2022/05/05 03:18:11;;;;;;;15.50;11.70;;;;;;;10.09;69.32;101901.13;6161679;23;20269;-83
2022/05/05 03:20:40;;;;;;;20.02;11.77;;;;;;;10.08;69.77;101908.22;6162299;23;20063;-83
2022/05/05 03:23:05;;;;;;;17.10;11.75;;;;;;;10.07;70.04;101901.19;6138820;23;20005;-83
2022/05/05 03:25:31;;;;;;;20.63;12.40;;;;;;;10.08;70.34;101897.63;6172566;23;20006;-83
2022/05/05 03:27:56;;;;;;;20.15;13.07;;;;;;;10.08;70.43;101902.94;6157922;23;20264;-83
2022/05/05 03:30:22;;;;;;;18.98;12.55;;;;;;;10.13;70.65;101908.81;6180620;23;20025;-83
2022/05/05 03:32:47;;;;;;;18.65;12.82;;;;;;;10.10;70.41;101903.69;6165604;23;20032;-83
2022/05/05 03:35:13;;;;;;;16.38;11.63;;;;;;;10.13;70.55;101908.81;6162748;23;20002;-83
2022/05/05 03:37:38;;;;;;;15.70;11.68;;;;;;;10.13;70.50;101907.97;6160857;23;20049;-83
2022/05/05 03:40:04;;;;;;;17.50;11.57;;;;;;;10.17;70.39;101913.03;6159799;23;20002;-83
2022/05/05 03:42:29;;;;;;;17.15;12.20;;;;;;;10.19;69.89;101902.28;6160178;23;20013;-83
2022/05/05 03:44:54;;;;;;;16.38;11.93;;;;;;;10.18;69.99;101913.88;6162489;23;20087;-83
2022/05/05 03:47:20;;;;;;;17.13;11.57;;;;;;;10.21;70.13;101913.69;6159385;23;20012;-83
2022/05/05 03:49:45;;;;;;;15.48;11.20;;;;;;;10.19;70.25;101913.78;6158846;23;20085;-83
2022/05/05 03:52:10;;;;;;;19.90;12.47;;;;;;;10.20;70.24;101917.28;6162089;23;20101;-83
2022/05/05 03:54:36;;;;;;;17.95;12.60;;;;;;;10.17;70.52;101917.47;6161003;23;20242;-84
2022/05/05 03:57:01;;;;;;;17.45;12.77;;;;;;;10.16;69.24;101919.28;6133646;23;20013;-83
2022/05/05 03:59:26;;;;;;;17.48;12.05;;;;;;;10.12;69.73;101923.03;6161455;23;20028;-83
2022/05/05 04:01:51;;;;;;;16.05;11.93;;;;;;;10.15;70.20;101925.50;6161176;23;20009;-82
2022/05/05 04:04:17;;;;;;;16.70;11.73;;;;;;;10.16;70.23;101929.88;6160767;23;20087;-83
2022/05/05 04:06:43;;;;;;;17.38;11.88;;;;;;;10.16;70.71;101931.69;6161532;23;20332;-83
2022/05/05 04:09:10;;;;;;;18.52;12.30;;;;;;;10.16;69.76;101926.38;6161529;23;20009;-83
2022/05/05 04:11:36;;;;;;;22.27;13.63;;;;;;;10.14;70.76;101931.78;6135781;23;20001;-83
2022/05/05 04:14:03;;;;;;;21.05;12.93;;;;;;;10.13;70.90;101935.38;6162165;23;20354;-83
2022/05/05 04:16:30;;;;;;;19.15;13.65;;;;;;;10.16;70.24;101935.19;6160663;23;20017;-85
2022/05/05 04:18:56;;;;;;;17.60;13.23;;;;;;;10.19;69.73;101934.16;6159142;23;20005;-85
2022/05/05 04:21:21;;;;;;;19.80;12.68;;;;;;;10.21;70.03;101942.03;6158696;23;20100;-85
2022/05/05 04:23:46;;;;;;;19.55;13.05;;;;;;;10.21;70.03;101948.22;6132257;23;20543;-85
2022/05/05 04:26:13;;;;;;;21.70;12.63;;;;;;;10.18;70.08;101943.06;6133150;23;20001;-86
2022/05/05 04:28:42;;;;;;;18.15;13.60;;;;;;;10.20;69.88;101941.19;6159038;23;20307;-86
2022/05/05 04:31:13;;;;;;;18.42;13.35;;;;;;;10.19;70.29;101937.69;6158866;23;20002;-85
2022/05/05 04:33:39;;;;;;;21.33;14.07;;;;;;;10.21;69.06;101942.91;6159237;23;20450;-86
2022/05/05 04:36:05;;;;;;;19.90;13.38;;;;;;;10.19;70.20;101943.00;6132365;23;20001;-85
2022/05/05 04:38:30;;;;;;;18.98;13.57;;;;;;;10.24;69.96;101949.81;6159277;23;20001;-83
2022/05/05 04:40:56;;;;;;;19.67;13.02;;;;;;;10.24;70.36;101947.16;6161779;23;20016;-83
2022/05/05 04:43:21;;;;;;;16.77;12.73;;;;;;;10.27;70.36;101955.81;6161664;23;20002;-83
2022/05/05 04:45:46;;;;;;;17.77;12.30;;;;;;;10.27;70.37;101947.00;6162961;23;20343;-83
2022/05/05 04:48:12;;;;;;;25.00;12.48;;;;;;;10.29;70.53;101955.72;6167586;23;20080;-83
2022/05/05 04:50:38;;;;;;;21.88;12.32;;;;;;;10.31;71.18;101949.38;6163086;23;20044;-83
2022/05/05 04:53:03;;;;;;;17.77;13.70;;;;;;;10.31;70.93;101948.53;6138239;23;20497;-83
2022/05/05 04:55:29;;;;;;;25.00;13.13;;;;;;;10.36;70.90;101960.63;6134649;23;20011;-84
2022/05/05 04:57:54;;;;;;;19.90;12.23;;;;;;;10.37;71.20;101958.81;6162276;23;20009;-83
2022/05/05 05:00:20;;;;;;;21.05;12.15;;;;;;;10.40;71.18;101963.97;6162469;23;20010;-83
2022/05/05 05:02:45;;;;;;;20.60;12.40;;;;;;;10.40;71.57;101957.81;6162396;23;20013;-84
2022/05/05 05:05:11;;;;;;;16.48;12.00;;;;;;;10.39;71.76;101958.72;6160321;23;20031;-83
2022/05/05 05:07:36;;;;;;;18.50;12.82;;;;;;;10.40;72.07;101963.97;6159306;23;20327;-83
2022/05/05 05:10:01;;;;;;;17.98;12.25;;;;;;;10.41;72.53;101971.00;6159232;23;20001;-83
2022/05/05 05:12:27;;;;;;;19.08;12.07;;;;;;;10.40;72.31;101979.06;6133426;23;20001;-83
2022/05/05 05:14:52;;;;;;;17.35;13.02;;;;;;;10.41;71.45;101975.44;6133355;23;20013;-83
2022/05/05 05:17:17;;;;;;;19.02;11.93;;;;;;;10.39;71.89;101982.63;6159866;23;20073;-83
2022/05/05 05:19:43;;;;;;;16.95;12.52;;;;;;;10.39;72.60;101979.97;6133694;23;20006;-82
2022/05/05 05:22:08;;;;;;;17.60;11.90;;;;;;;10.42;73.07;101979.81;6160558;23;20010;-83
2022/05/05 05:24:34;;;;;;;23.80;12.70;;;;;;;10.40;73.08;101976.41;6161013;23;20028;-83
2022/05/05 05:26:59;;;;;;;17.05;11.98;;;;;;;10.43;72.69;101986.84;6160420;23;20072;-84
2022/05/05 05:29:24;;;;;;;17.63;12.60;;;;;;;10.43;73.17;101984.19;6159946;23;20037;-83
2022/05/05 05:31:50;;;;;;;21.02;13.13;;;;;;;10.42;73.31;101988.63;6132300;23;20419;-84
2022/05/05 05:34:15;;;;;;;17.63;12.65;;;;;;;10.48;73.09;101982.13;6132750;23;20415;-83
2022/05/05 05:36:40;;;;;;;21.70;13.43;;;;;;;10.46;73.55;101987.53;6133169;23;20017;-83
2022/05/05 05:39:06;;;;;;;18.27;13.27;;;;;;;10.54;73.27;101997.69;6159006;23;20010;-83
2022/05/05 05:41:34;;;;;;;24.67;13.20;;;;;;;10.53;73.04;101996.00;6158808;23;20010;-84
2022/05/05 05:44:01;;;;;;;20.08;14.15;;;;;;;10.55;73.23;101994.09;6159824;23;20009;-84
2022/05/05 05:46:26;;;;;;;19.25;13.00;;;;;;;10.63;72.97;102001.63;6163030;23;20006;-83
2022/05/05 05:48:52;;;;;;;18.77;13.13;;;;;;;10.67;72.88;101998.69;6137105;23;20064;-83
2022/05/05 05:51:18;;;;;;;25.13;14.52;;;;;;;10.73;73.30;102003.63;6136929;23;20081;-83
2022/05/05 05:53:43;;;;;;;20.15;13.35;;;;;;;10.79;72.93;101991.81;6173949;23;20005;-83
2022/05/05 05:56:08;;;;;;;21.08;13.98;;;;;;;10.92;73.05;102008.75;6152928;23;20013;-84
2022/05/05 05:58:38;;;;;;;28.63;13.15;;;;;;;11.00;72.83;102004.75;6147860;23;20090;-82
2022/05/05 06:01:06;;;;;;;22.25;13.45;;;;;;;11.09;72.41;102004.19;6170802;23;20001;-82
2022/05/05 06:06:16;;;;;;;21.08;14.02;;;;;;;11.28;70.62;102012.78;6165017;23;20028;-82
2022/05/05 06:08:41;;;;;;;22.95;14.13;;;;;;;11.34;70.28;102014.22;6173181;23;20018;-81
2022/05/05 06:11:06;;;;;;;24.08;14.48;;;;;;;11.39;69.22;102020.13;6168796;23;20005;-81
2022/05/05 06:13:32;;;;;;;21.90;14.48;;;;;;;11.47;68.66;102012.53;6171863;23;20010;-80
2022/05/05 06:15:57;;;;;;;23.70;14.93;;;;;;;11.51;68.53;102015.84;6169069;23;20049;-82
2022/05/05 06:18:25;;;;;;;26.77;14.43;;;;;;;11.61;67.76;102013.47;6177367;23;19985;-82
2022/05/05 06:20:53;;;;;;;22.58;14.55;;;;;;;11.71;66.78;102019.03;6178923;23;19989;-83
2022/05/05 06:23:18;;;;;;;23.48;15.32;;;;;;;11.82;65.97;102013.91;6175726;23;20328;-83
2022/05/05 06:25:43;;;;;;;21.15;14.43;;;;;;;11.94;66.44;102018.50;6123170;23;20017;-82
2022/05/05 06:28:09;;;;;;;21.92;13.25;;;;;;;12.05;64.25;102011.63;6149000;23;20013;-82
2022/05/05 06:30:34;;;;;;;20.35;13.73;;;;;;;12.14;62.97;102014.56;6149739;23;20021;-82
2022/05/05 06:32:59;;;;;;;22.40;13.50;;;;;;;12.28;62.59;102016.31;6169677;23;20002;-82
2022/05/05 06:35:26;;;;;;;21.88;13.93;;;;;;;12.53;62.94;102020.88;6142720;23;20249;-81
2022/05/05 06:37:52;;;;;;;25.67;15.02;;;;;;;12.66;61.86;102020.94;6173421;23;20016;-81
2022/05/05 06:40:17;;;;;;;22.00;14.32;;;;;;;12.88;61.90;102020.34;6172447;23;20009;-81
2022/05/05 06:42:43;;;;;;;21.92;15.23;;;;;;;13.08;60.59;102020.81;6146138;23;20029;-80
2022/05/05 06:45:09;;;;;;;21.30;15.32;;;;;;;13.28;60.36;102019.44;6170166;23;20001;-81
2022/05/05 06:47:35;;;;;;;24.10;16.45;;;;;;;13.47;60.65;102016.34;6145401;23;20084;-79
2022/05/05 06:50:00;;;;;;;25.17;17.48;;;;;;;13.73;60.68;102021.69;6170608;23;20013;-80
2022/05/05 06:52:26;;;;;;;28.38;17.50;;;;;;;13.94;60.30;102024.63;6168859;23;20001;-80
2022/05/05 06:54:51;;;;;;;27.63;19.15;;;;;;;14.12;59.78;102023.31;6167237;23;20304;-80
2022/05/05 06:57:17;;;;;;;29.15;18.38;;;;;;;14.28;59.09;102023.03;6170353;23;20016;-80
2022/05/05 06:59:42;;;;;;;32.45;18.98;;;;;;;14.51;58.46;102020.47;6172819;23;20009;-81
2022/05/05 07:02:10;;;;;;;29.17;20.50;;;;;;;14.64;58.92;102023.09;6147075;23;20009;-81
2022/05/05 07:07:21;;;;;;;39.00;26.85;;;;;;;15.05;58.77;102027.13;6169225;23;20028;-82
2022/05/05 07:12:34;;;;;;;50.65;34.45;;;;;;;15.47;58.83;102032.78;6183097;23;20021;-82
2022/05/05 07:14:59;;;;;;;51.05;32.85;;;;;;;15.82;58.41;102045.25;6176835;23;20002;-82
2022/05/05 07:17:25;;;;;;;49.65;33.05;;;;;;;16.05;56.88;102038.91;6145393;23;20006;-82
2022/05/05 07:19:52;;;;;;;50.30;34.42;;;;;;;16.30;55.45;102047.63;6175420;23;20017;-82
2022/05/05 07:22:17;;;;;;;44.55;32.25;;;;;;;16.59;55.27;102047.91;6169971;23;20486;-82
2022/05/05 07:24:43;;;;;;;45.92;32.75;;;;;;;16.78;54.49;102054.41;6171777;23;20088;-82
2022/05/05 07:27:10;;;;;;;44.50;31.73;;;;;;;17.04;53.61;102048.69;6181904;23;20009;-81
2022/05/05 07:29:35;;;;;;;47.17;32.47;;;;;;;17.29;53.05;102042.09;6181870;23;20020;-82
2022/05/05 07:32:01;;;;;;;43.42;32.53;;;;;;;17.54;51.70;102051.56;6182080;23;20001;-81
2022/05/05 07:34:26;;;;;;;47.50;32.45;;;;;;;17.82;51.50;102050.00;6183592;23;20010;-82
2022/05/05 07:36:52;;;;;;;46.42;32.97;;;;;;;17.99;50.22;102047.69;6183897;23;19994;-82
2022/05/05 07:39:17;;;;;;;44.20;32.10;;;;;;;18.25;49.71;102048.88;6184255;23;20017;-81
2022/05/05 07:41:43;;;;;;;43.55;32.47;;;;;;;18.48;49.52;102054.00;6184268;23;20119;-81
2022/05/05 07:44:08;;;;;;;39.50;30.67;;;;;;;18.84;48.96;102051.66;6153964;23;20029;-81
2022/05/05 07:46:35;;;;;;;42.20;30.85;;;;;;;19.00;48.55;102051.03;6179126;23;20029;-82
2022/05/05 07:49:04;;;;;;;41.83;31.05;;;;;;;19.33;48.04;102051.56;6180791;23;20006;-81
2022/05/05 07:51:29;;;;;;;42.42;30.95;;;;;;;19.60;48.50;102059.72;6178598;23;20006;-81
2022/05/05 07:56:40;;;;;;;40.58;29.80;;;;;;;20.04;45.04;102056.44;6178686;23;20021;-81
2022/05/05 07:59:06;;;;;;;36.22;28.08;;;;;;;20.06;45.22;102058.97;6176529;23;20009;-82
2022/05/05 08:01:34;;;;;;;39.30;29.38;;;;;;;20.06;45.09;102058.97;6179579;23;20004;-81
2022/05/05 08:04:00;;;;;;;39.15;29.77;;;;;;;20.23;44.40;102060.00;6180131;23;20009;-81
2022/05/05 08:06:26;;;;;;;37.20;29.17;;;;;;;20.18;44.39;102063.16;6156410;23;20009;-81
2022/05/05 08:08:51;;;;;;;38.38;29.67;;;;;;;20.13;44.05;102060.94;6181813;23;20044;-80
2022/05/05 08:11:17;;;;;;;39.78;29.20;;;;;;;20.30;44.58;102061.09;6178784;23;20064;-80
2022/05/05 08:13:43;;;;;;;32.35;25.63;;;;;;;20.31;44.38;102071.72;6183291;23;19997;-80
2022/05/05 08:16:10;;;;;;;29.95;23.55;;;;;;;20.21;44.01;102070.09;6154878;23;20017;-80
2022/05/05 08:18:38;;;;;;;32.25;24.58;;;;;;;20.17;43.38;102071.38;6153104;23;20021;-82
2022/05/05 08:21:04;;;;;;;53.10;23.23;;;;;;;20.11;43.92;102071.00;6154357;23;20009;-81
2022/05/05 08:23:29;;;;;;;31.05;22.60;;;;;;;20.25;44.58;102069.66;6181554;23;19990;-82
2022/05/05 08:28:40;;;;;;;30.75;22.70;;;;;;;19.95;43.79;102071.66;6161336;23;20248;-82
2022/05/05 08:31:06;;;;;;;27.67;21.80;;;;;;;19.84;44.50;102079.09;6183593;23;19993;-80
2022/05/05 08:33:40;;;;;;;29.00;22.42;;;;;;;19.76;45.26;102083.38;6183322;23;20004;-79
2022/05/05 08:36:09;;;;;;;26.90;22.05;;;;;;;19.60;44.56;102083.09;6184071;23;20013;-80
2022/05/05 08:38:35;;;;;;;39.10;28.27;;;;;;;19.56;45.76;102089.78;6183912;23;20001;-80
2022/05/05 08:41:02;;;;;;;43.47;32.17;;;;;;;19.38;46.49;102084.31;6184149;23;19994;-79
2022/05/05 08:43:28;;;;;;;42.97;32.33;;;;;;;19.23;47.06;102082.09;6183898;23;19994;-81
2022/05/05 08:45:57;;;;;;;40.95;31.02;;;;;;;19.24;48.19;102091.00;6157190;23;20009;-80
2022/05/05 08:48:22;;;;;;;39.05;30.80;;;;;;;19.15;46.57;102091.84;6177530;23;20061;-81
2022/05/05 08:50:58;;;;;;;44.50;31.20;;;;;;;19.07;48.43;102097.09;6182279;23;20001;-80
2022/05/05 08:53:35;;;;;;;41.35;31.55;;;;;;;18.98;47.81;102094.28;6183046;23;19990;-80
2022/05/05 08:56:05;;;;;;;42.40;31.58;;;;;;;18.91;49.35;102103.06;6182534;23;20005;-79
2022/05/05 08:58:32;;;;;;;41.58;31.63;;;;;;;18.90;48.01;102104.94;6182967;23;19994;-80
2022/05/05 09:00:58;;;;;;;40.35;30.58;;;;;;;18.81;48.38;102086.88;6158072;23;20033;-80
2022/05/05 09:03:23;;;;;;;46.80;30.10;;;;;;;18.73;47.73;102092.97;6183983;23;20001;-81
2022/05/05 09:06:00;;;;;;;43.22;30.52;;;;;;;18.73;48.07;102098.34;6184065;23;20018;-81
2022/05/05 09:08:28;;;;;;;40.17;30.45;;;;;;;18.71;48.02;102099.50;6174066;23;20014;-84
2022/05/05 09:10:56;;;;;;;42.33;30.05;;;;;;;18.80;47.80;102107.59;6139433;23;20061;-83
2022/05/05 09:13:28;;;;;;;40.85;30.05;;;;;;;18.82;48.29;102102.91;6164596;23;20009;-84
2022/05/05 09:15:54;;;;;;;35.15;28.40;;;;;;;18.85;47.98;102104.47;6165184;23;20006;-84
2022/05/05 09:18:31;;;;;;;41.28;29.25;;;;;;;18.73;47.48;102106.41;6163124;23;20009;-84
2022/05/05 09:21:02;;;;;;;36.20;29.63;;;;;;;18.78;48.40;102106.00;6163267;23;20005;-83
2022/05/05 09:23:36;;;;;;;39.95;31.10;;;;;;;18.66;48.03;102099.91;6158037;23;20419;-83
2022/05/05 09:26:08;;;;;;;43.90;30.23;;;;;;;18.67;48.45;102107.84;6154086;23;20370;-83
2022/05/05 09:28:35;;;;;;;40.50;29.63;;;;;;;18.67;48.35;102110.53;6156760;23;20323;-83
2022/05/05 09:31:10;;;;;;;40.28;29.98;;;;;;;18.68;49.34;102116.75;6156895;23;20012;-84
2022/05/05 09:33:37;;;;;;;44.97;31.30;;;;;;;18.57;48.45;102112.38;6156363;23;20076;-83
2022/05/05 09:36:04;;;;;;;40.83;30.80;;;;;;;18.49;48.12;102117.59;6156084;23;20001;-84
2022/05/05 09:38:54;;;;;;;42.08;30.63;;;;;;;18.54;48.59;102125.25;6156506;23;20002;-84
2022/05/05 09:41:21;;;;;;;43.17;31.63;;;;;;;18.44;48.80;102127.91;6159305;23;20423;-84
2022/05/05 09:43:46;;;;;;;42.90;31.83;;;;;;;18.47;48.97;102124.94;6133485;23;20085;-84
2022/05/05 09:46:33;;;;;;;44.67;32.35;;;;;;;18.58;48.94;102129.34;6157382;23;20122;-84
2022/05/05 09:49:12;;;;;;;41.85;31.83;;;;;;;18.58;49.14;102134.72;6159759;23;20431;-84
2022/05/05 09:57:43;;;;;;;48.78;31.75;;;;;;;18.65;48.64;102131.34;6158301;23;20343;-85
2022/05/05 10:00:44;;;;;;;48.45;31.95;;;;;;;18.70;48.52;102130.91;6157528;23;20008;-84
2022/05/05 10:05:58;;;;;;;42.30;31.98;;;;;;;18.79;47.69;102132.78;6156308;23;20032;-84
2022/05/05 10:08:37;;;;;;;41.13;30.23;;;;;;;18.91;47.97;102136.22;6156640;23;20002;-84
2022/05/05 10:11:08;;;;;;;40.55;30.92;;;;;;;19.05;47.85;102140.31;6157008;23;20005;-84
2022/05/05 10:13:36;;;;;;;45.90;32.42;;;;;;;18.99;47.24;102133.69;6156915;23;20339;-84
2022/05/05 10:16:04;;;;;;;42.78;32.63;;;;;;;19.01;46.92;102139.75;6130399;23;20001;-84
2022/05/05 10:18:29;;;;;;;41.35;30.85;;;;;;;18.97;47.04;102135.66;6156870;23;20006;-84
2022/05/05 10:20:57;;;;;;;45.95;32.28;;;;;;;19.01;46.92;102138.91;6135687;23;20025;-83
2022/05/05 10:23:37;;;;;;;41.97;30.30;;;;;;;19.05;46.75;102132.25;6160607;23;20002;-84
2022/05/05 10:26:03;;;;;;;38.17;31.15;;;;;;;19.06;47.34;102131.25;6134303;23;20009;-84
2022/05/05 10:28:41;;;;;;;37.25;30.02;;;;;;;19.23;47.59;102137.78;6159744;23;20008;-84
2022/05/05 10:31:35;;;;;;;43.00;31.40;;;;;;;19.39;47.30;102135.34;6160991;23;20470;-82
2022/05/05 10:34:06;;;;;;;38.35;29.33;;;;;;;19.42;46.71;102136.91;6157668;23;20006;-82
2022/05/05 10:36:32;;;;;;;39.42;30.85;;;;;;;19.44;46.80;102134.09;6133404;23;20014;-83
2022/05/05 10:38:57;;;;;;;38.95;30.35;;;;;;;19.58;45.72;102129.09;6132908;23;20017;-83
2022/05/05 10:41:39;;;;;;;40.75;28.67;;;;;;;19.78;46.58;102140.69;6162552;23;20010;-82
2022/05/05 10:44:13;;;;;;;39.88;29.67;;;;;;;19.80;45.65;102139.69;6160602;23;20059;-83
2022/05/05 10:47:01;;;;;;;38.28;29.25;;;;;;;19.91;45.77;102137.66;6135833;23;20084;-83
2022/05/05 10:49:32;;;;;;;39.22;29.50;;;;;;;19.90;46.36;102135.97;6162399;23;20006;-83
2022/05/05 10:52:16;;;;;;;37.75;29.70;;;;;;;20.06;46.07;102132.63;6161230;23;20025;-83
2022/05/05 10:54:48;;;;;;;34.20;27.55;;;;;;;20.26;46.05;102133.38;6162378;23;20049;-84
2022/05/05 10:57:23;;;;;;;37.65;29.40;;;;;;;20.28;45.05;102134.13;6162559;23;20013;-82
2022/05/05 11:00:07;;;;;;;37.63;28.85;;;;;;;20.39;44.85;102135.75;6161866;23;20009;-83
2022/05/05 11:02:33;;;;;;;31.92;26.67;;;;;;;20.55;44.55;102136.91;6160378;23;20507;-82
2022/05/05 11:05:20;;;;;;;32.72;27.73;;;;;;;20.62;44.00;102132.63;6160801;23;20009;-83
2022/05/05 11:07:49;;;;;;;34.95;27.63;;;;;;;20.70;42.67;102136.28;6139114;23;20049;-82
2022/05/05 11:10:47;;;;;;;39.03;28.98;;;;;;;20.76;42.97;102134.81;6136994;23;20458;-83
2022/05/05 11:13:35;;;;;;;38.33;27.48;;;;;;;21.05;43.73;102131.91;6158333;23;20002;-83
2022/05/05 11:22:15;;;;;;;32.97;26.05;;;;;;;21.47;42.04;102130.41;6177729;23;19931;-83
2022/05/05 11:24:46;;;;;;;35.72;26.67;;;;;;;21.48;40.92;102125.84;6146638;23;20093;-83
2022/05/05 11:27:16;;;;;;;37.85;28.50;;;;;;;21.50;41.10;102121.97;6168997;23;20347;-83
2022/05/05 11:29:48;;;;;;;35.20;27.77;;;;;;;21.67;41.96;102127.50;6164252;23;20013;-83
2022/05/05 11:32:13;;;;;;;31.92;25.58;;;;;;;21.81;41.18;102127.72;6161720;23;20327;-83
2022/05/05 11:34:39;;;;;;;35.00;27.10;;;;;;;22.02;41.05;102129.22;6165361;23;20064;-83
2022/05/05 11:37:07;;;;;;;32.55;26.63;;;;;;;22.00;40.10;102128.53;6158879;23;20312;-83
2022/05/05 11:39:36;;;;;;;30.80;26.05;;;;;;;22.28;39.75;102129.19;6159640;23;20048;-83
2022/05/05 11:42:05;;;;;;;;;;;;;;;22.63;41.22;102124.56;6132285;23;20029;-83
2022/05/05 11:44:30;;;;;;;30.10;24.60;;;;;;;22.77;38.05;102114.06;6158027;23;20246;-83
2022/05/05 11:46:57;;;;;;;32.50;24.92;;;;;;;22.95;39.30;102116.59;6165499;23;20009;-80
2022/05/05 11:49:32;;;;;;;36.15;24.02;;;;;;;23.01;38.12;102113.22;6166631;23;20002;-84
2022/05/05 11:52:06;;;;;;;31.35;25.42;;;;;;;22.80;36.71;102120.00;6170895;23;20068;-84
2022/05/05 11:54:33;;;;;;;27.70;23.30;;;;;;;23.02;38.24;102120.34;6167957;23;20051;-84
2022/05/05 11:57:00;;;;;;;28.90;22.92;;;;;;;23.14;37.29;102116.31;6133367;23;20431;-87